Time;durP1;ratioP1;P1;durP2;ratioP2;P2;SDS_P1;SDS_P2;PMS_P1;PMS_P2;Temp;Humidity;BMP_temperature;BMP_pressure;BME280_temperature;BME280_humidity;BME280_pressure;Samples;Min_cycle;Max_cycle;Signal;HPM_P1;HPM_P2
2023/03/21 00:00:42;;;;;;;5.38;4.85;;;;;;;;;;4972600;28;20677;-65
2023/03/21 00:03:08;;;;;;;6.25;5.18;;;;;;;;;;4972675;28;20031;-66
2023/03/21 00:05:33;;;;;;;6.32;5.35;;;;;;;;;;4972895;28;20035;-65
2023/03/21 00:07:59;;;;;;;5.82;5.28;;;;;;;;;;4968143;28;20886;-67
2023/03/21 00:10:25;;;;;;;7.32;5.70;;;;;;;;;;4971938;28;20034;-68
2023/03/21 00:12:57;;;;;;;6.88;5.50;;;;;;;;;;4977447;28;20039;-66
2023/03/21 00:15:28;;;;;;;9.88;6.10;;;;;;;;;;4968175;28;20097;-67
2023/03/21 00:18:02;;;;;;;9.38;5.82;;;;;;;;;;4967948;28;20035;-65
2023/03/21 00:20:33;;;;;;;6.50;5.78;;;;;;;;;;4967308;28;20038;-66
2023/03/21 00:23:00;;;;;;;10.43;5.93;;;;;;;;;;4967901;28;20042;-65
2023/03/21 00:25:27;;;;;;;8.20;5.60;;;;;;;;;;4969190;28;20042;-66
2023/03/21 00:27:52;;;;;;;9.43;6.03;;;;;;;;;;4974084;28;20034;-65
2023/03/21 00:30:18;;;;;;;7.82;5.72;;;;;;;;;;4972902;28;20036;-65
2023/03/21 00:32:46;;;;;;;6.93;5.43;;;;;;;;;;4953172;28;20503;-65
2023/03/21 00:35:14;;;;;;;7.28;5.63;;;;;;;;;;4969255;28;20035;-64
2023/03/21 00:37:40;;;;;;;6.22;5.60;;;;;;;;;;4967578;28;20041;-67
2023/03/21 00:40:09;;;;;;;6.07;5.43;;;;;;;;;;4971290;28;20379;-64
2023/03/21 00:42:35;;;;;;;7.63;5.72;;;;;;;;;;4973283;28;20530;-67
2023/03/21 00:45:05;;;;;;;9.60;6.07;;;;;;;;;;4967621;28;20245;-65
2023/03/21 00:47:31;;;;;;;11.27;5.67;;;;;;;;;;4974532;28;20121;-64
2023/03/21 00:49:56;;;;;;;7.78;6.07;;;;;;;;;;4966784;28;20410;-65
2023/03/21 00:52:22;;;;;;;8.25;5.90;;;;;;;;;;4967989;28;20038;-64
2023/03/21 00:54:50;;;;;;;8.82;6.47;;;;;;;;;;4972170;28;20098;-67
2023/03/21 00:57:17;;;;;;;7.60;5.93;;;;;;;;;;4975237;28;20390;-66
2023/03/21 00:59:43;;;;;;;7.15;6.07;;;;;;;;;;4954139;28;20047;-67
2023/03/21 01:02:13;;;;;;;8.05;5.60;;;;;;;;;;4967288;28;20049;-66
2023/03/21 01:04:39;;;;;;;8.05;6.50;;;;;;;;;;4968365;28;20108;-64
2023/03/21 01:07:05;;;;;;;7.47;6.43;;;;;;;;;;4973081;28;20035;-66
2023/03/21 01:09:31;;;;;;;7.07;6.30;;;;;;;;;;4984620;28;20430;-67
2023/03/21 01:11:57;;;;;;;7.88;6.63;;;;;;;;;;4967423;28;20507;-66
2023/03/21 01:14:23;;;;;;;7.63;6.82;;;;;;;;;;4967661;28;20045;-64
2023/03/21 01:16:52;;;;;;;8.25;6.22;;;;;;;;;;4971155;28;20042;-64
2023/03/21 01:19:21;;;;;;;7.13;6.20;;;;;;;;;;4966611;28;20039;-66
2023/03/21 01:21:46;;;;;;;7.68;6.13;;;;;;;;;;4969646;28;20034;-67
2023/03/21 01:24:12;;;;;;;7.20;5.72;;;;;;;;;;4970398;28;20085;-65
2023/03/21 01:26:38;;;;;;;10.20;5.63;;;;;;;;;;4966605;28;20855;-67
2023/03/21 01:29:04;;;;;;;7.75;5.75;;;;;;;;;;4968160;28;20097;-64
2023/03/21 01:31:30;;;;;;;6.95;6.10;;;;;;;;;;4973309;28;20046;-65
2023/03/21 01:33:57;;;;;;;7.47;5.95;;;;;;;;;;4971821;28;20078;-66
2023/03/21 01:36:24;;;;;;;6.85;6.15;;;;;;;;;;4967329;28;20065;-65
2023/03/21 01:38:53;;;;;;;7.28;6.07;;;;;;;;;;4971215;28;20518;-64
2023/03/21 01:41:31;;;;;;;6.78;5.53;;;;;;;;;;4971326;28;20039;-65
2023/03/21 01:43:58;;;;;;;7.07;5.50;;;;;;;;;;4984304;28;20054;-65
2023/03/21 01:46:45;;;;;;;5.60;5.10;;;;;;;;;;4955160;28;20054;-67
2023/03/21 01:49:37;;;;;;;6.18;5.57;;;;;;;;;;4993312;28;20042;-65
2023/03/21 01:52:27;;;;;;;8.07;5.95;;;;;;;;;;4973382;28;20046;-65
2023/03/21 01:54:55;;;;;;;6.13;5.53;;;;;;;;;;4976092;28;20038;-66
2023/03/21 01:57:31;;;;;;;6.88;5.75;;;;;;;;;;4969983;28;20035;-67
2023/03/21 02:00:03;;;;;;;8.02;6.35;;;;;;;;;;4972730;28;20038;-67
2023/03/21 02:02:58;;;;;;;7.68;6.68;;;;;;;;;;4967724;28;20045;-66
2023/03/21 02:05:57;;;;;;;8.95;7.00;;;;;;;;;;4968692;28;20621;-66
2023/03/21 02:08:31;;;;;;;8.35;6.80;;;;;;;;;;4971990;28;20113;-66
2023/03/21 02:10:59;;;;;;;6.97;6.03;;;;;;;;;;4966825;28;20038;-66
2023/03/21 02:13:36;;;;;;;7.03;5.90;;;;;;;;;;4971414;28;20101;-66
2023/03/21 02:16:21;;;;;;;9.10;5.95;;;;;;;;;;4970484;28;20046;-67
2023/03/21 02:19:27;;;;;;;6.40;5.63;;;;;;;;;;4983076;28;20562;-66
2023/03/21 02:22:18;;;;;;;8.35;6.85;;;;;;;;;;4968711;28;20046;-66
2023/03/21 02:24:58;;;;;;;8.68;6.18;;;;;;;;;;4987944;28;20907;-66
2023/03/21 02:27:26;;;;;;;8.13;6.68;;;;;;;;;;4968676;28;20502;-66
2023/03/21 02:30:15;;;;;;;7.15;6.40;;;;;;;;;;4975198;28;20039;-66
2023/03/21 02:32:57;;;;;;;9.68;6.90;;;;;;;;;;4971849;28;20093;-66
2023/03/21 02:36:00;;;;;;;11.93;7.35;;;;;;;;;;4981946;28;20034;-66
2023/03/21 02:38:48;;;;;;;7.93;6.20;;;;;;;;;;4985082;28;20600;-67
2023/03/21 02:41:38;;;;;;;7.55;6.50;;;;;;;;;;4969319;28;20031;-66
2023/03/21 02:44:22;;;;;;;10.48;6.90;;;;;;;;;;4967151;28;20081;-65
2023/03/21 02:47:01;;;;;;;7.03;6.20;;;;;;;;;;4971590;28;20066;-66
2023/03/21 02:49:39;;;;;;;9.23;6.13;;;;;;;;;;4970791;28;20038;-66
2023/03/21 02:52:07;;;;;;;10.70;7.00;;;;;;;;;;4972653;28;20045;-67
2023/03/21 02:54:34;;;;;;;8.65;6.43;;;;;;;;;;4969648;28;20082;-66
2023/03/21 02:57:03;;;;;;;7.60;6.45;;;;;;;;;;4968942;28;20734;-65
2023/03/21 02:59:29;;;;;;;7.18;6.35;;;;;;;;;;4970236;28;20034;-67
2023/03/21 03:01:58;;;;;;;9.15;6.40;;;;;;;;;;4967633;28;20043;-64
2023/03/21 03:04:26;;;;;;;6.90;5.97;;;;;;;;;;4970689;28;20033;-66
2023/03/21 03:07:16;;;;;;;6.93;6.18;;;;;;;;;;4978308;28;20077;-66
2023/03/21 03:10:00;;;;;;;9.88;6.60;;;;;;;;;;4985610;28;20057;-67
2023/03/21 03:12:46;;;;;;;6.90;6.20;;;;;;;;;;4990712;28;20030;-66
2023/03/21 03:15:25;;;;;;;7.57;6.38;;;;;;;;;;4972428;28;20038;-66
2023/03/21 03:17:58;;;;;;;10.30;6.00;;;;;;;;;;4974882;28;20046;-67
2023/03/21 03:20:31;;;;;;;10.77;6.80;;;;;;;;;;4983508;28;20049;-67
2023/03/21 03:23:03;;;;;;;7.55;6.72;;;;;;;;;;4972963;28;20759;-67
2023/03/21 03:25:40;;;;;;;8.52;6.22;;;;;;;;;;4975413;28;20487;-67
2023/03/21 03:28:06;;;;;;;8.65;6.38;;;;;;;;;;4969772;28;20054;-67
2023/03/21 03:30:35;;;;;;;8.27;6.38;;;;;;;;;;4981672;28;20058;-67
2023/03/21 03:33:02;;;;;;;;;;;;;;;;;;4990443;28;20046;-66
2023/03/21 03:35:29;;;;;;;7.93;6.95;;;;;;;;;;4975227;28;19922;-67
2023/03/21 03:37:59;;;;;;;8.65;7.32;;;;;;;;;;4982318;28;20530;-67
2023/03/21 03:40:48;;;;;;;16.33;6.85;;;;;;;;;;4973376;28;20447;-67
2023/03/21 03:43:47;;;;;;;9.25;6.60;;;;;;;;;;4967936;28;20503;-66
2023/03/21 03:46:18;;;;;;;6.75;6.05;;;;;;;;;;4968139;28;20043;-67
2023/03/21 03:48:53;;;;;;;10.18;7.22;;;;;;;;;;4965522;28;20081;-67
2023/03/21 03:51:27;;;;;;;8.80;6.50;;;;;;;;;;4970458;28;20043;-66
2023/03/21 03:54:17;;;;;;;7.55;6.60;;;;;;;;;;4969667;28;20038;-66
2023/03/21 03:56:44;;;;;;;7.15;5.78;;;;;;;;;;4981518;28;20069;-66
2023/03/21 03:59:10;;;;;;;8.70;7.00;;;;;;;;;;4967010;28;20041;-67
2023/03/21 04:01:55;;;;;;;11.35;6.72;;;;;;;;;;4970112;28;20490;-66
2023/03/21 04:04:21;;;;;;;7.38;6.00;;;;;;;;;;4968116;28;20121;-65
2023/03/21 04:06:50;;;;;;;7.47;6.23;;;;;;;;;;4968539;28;20043;-65
2023/03/21 04:09:19;;;;;;;7.13;6.43;;;;;;;;;;4970969;28;21061;-65
2023/03/21 04:11:45;;;;;;;7.72;6.80;;;;;;;;;;4966365;28;20109;-65
2023/03/21 04:14:11;;;;;;;9.32;7.38;;;;;;;;;;4970425;28;20045;-65
2023/03/21 04:16:37;;;;;;;7.75;6.65;;;;;;;;;;4969113;28;20031;-65
2023/03/21 04:19:03;;;;;;;8.10;6.85;;;;;;;;;;4968531;28;20034;-68
2023/03/21 04:21:29;;;;;;;7.15;6.45;;;;;;;;;;4969633;28;20042;-64
2023/03/21 04:23:55;;;;;;;7.45;6.75;;;;;;;;;;4971727;28;20035;-64
2023/03/21 04:26:21;;;;;;;7.60;6.72;;;;;;;;;;4970312;28;20372;-66
2023/03/21 04:29:10;;;;;;;;;;;;;;;;;;4964571;28;20062;-65
2023/03/21 04:31:55;;;;;;;7.07;6.38;;;;;;;;;;4971412;28;19933;-65
2023/03/21 04:34:22;;;;;;;10.60;6.38;;;;;;;;;;4968475;28;20057;-65
2023/03/21 04:36:52;;;;;;;9.18;6.85;;;;;;;;;;4963945;28;20125;-67
2023/03/21 04:39:19;;;;;;;8.20;6.97;;;;;;;;;;4967230;28;20034;-67
2023/03/21 04:41:48;;;;;;;;;;;;;;;;;;4966297;28;20039;-66
2023/03/21 04:44:16;;;;;;;10.88;6.75;;;;;;;;;;4966176;28;19940;-67
2023/03/21 04:46:42;;;;;;;11.52;7.13;;;;;;;;;;4964548;28;20035;-66
2023/03/21 04:49:09;;;;;;;9.55;6.45;;;;;;;;;;4965971;28;20034;-66
2023/03/21 04:51:35;;;;;;;9.43;7.60;;;;;;;;;;4967426;28;20035;-67
2023/03/21 04:54:02;;;;;;;7.75;6.95;;;;;;;;;;4965758;28;20042;-67
2023/03/21 04:56:32;;;;;;;8.93;6.72;;;;;;;;;;4964567;28;20380;-67
2023/03/21 04:59:07;;;;;;;8.93;7.63;;;;;;;;;;4981931;28;20493;-66
2023/03/21 05:01:33;;;;;;;8.75;6.43;;;;;;;;;;4965891;28;20059;-67
2023/03/21 05:04:00;;;;;;;7.90;7.10;;;;;;;;;;4966939;28;20106;-66
2023/03/21 05:06:26;;;;;;;9.80;7.25;;;;;;;;;;4968555;28;20043;-67
2023/03/21 05:08:55;;;;;;;8.45;6.82;;;;;;;;;;4969217;28;20566;-66
2023/03/21 05:11:21;;;;;;;8.50;7.00;;;;;;;;;;4984009;28;20077;-66
2023/03/21 05:13:48;;;;;;;10.25;7.00;;;;;;;;;;4969104;28;20034;-66
2023/03/21 05:16:13;;;;;;;9.43;7.68;;;;;;;;;;4972713;28;20027;-66
2023/03/21 05:18:39;;;;;;;8.75;7.30;;;;;;;;;;4988390;28;20090;-67
2023/03/21 05:21:17;;;;;;;17.45;12.10;;;;;;;;;;4969757;28;20030;-66
2023/03/21 05:23:44;;;;;;;14.88;9.13;;;;;;;;;;4971651;28;20454;-66
2023/03/21 05:26:09;;;;;;;14.70;8.15;;;;;;;;;;4965964;28;20042;-66
2023/03/21 05:28:46;;;;;;;11.57;7.25;;;;;;;;;;4969723;28;20042;-66
2023/03/21 05:31:17;;;;;;;39.45;14.68;;;;;;;;;;4972257;28;20404;-67
2023/03/21 05:33:46;;;;;;;26.35;12.07;;;;;;;;;;4968384;28;20054;-66
2023/03/21 05:36:15;;;;;;;15.15;10.18;;;;;;;;;;4971332;28;20049;-65
2023/03/21 05:38:44;;;;;;;12.27;8.48;;;;;;;;;;4971342;28;20039;-66
2023/03/21 05:41:10;;;;;;;9.48;7.50;;;;;;;;;;4967202;28;20042;-66
2023/03/21 05:43:36;;;;;;;9.13;7.15;;;;;;;;;;4967770;28;20035;-66
2023/03/21 05:46:03;;;;;;;8.98;7.15;;;;;;;;;;4971923;28;20057;-66
2023/03/21 05:48:29;;;;;;;9.60;6.90;;;;;;;;;;4967087;28;20047;-66
2023/03/21 05:51:11;;;;;;;9.20;6.15;;;;;;;;;;4968699;28;20642;-66
2023/03/21 05:53:37;;;;;;;10.27;7.10;;;;;;;;;;4972292;28;20039;-66
2023/03/21 05:56:02;;;;;;;10.02;6.72;;;;;;;;;;4974161;28;20037;-66
2023/03/21 05:58:50;;;;;;;9.13;7.55;;;;;;;;;;4970517;28;20074;-66
2023/03/21 06:01:17;;;;;;;7.90;5.90;;;;;;;;;;4971435;28;20038;-66
2023/03/21 06:03:51;;;;;;;10.38;6.55;;;;;;;;;;4972151;28;20486;-66
2023/03/21 06:06:21;;;;;;;10.18;6.78;;;;;;;;;;4971182;28;20046;-66
2023/03/21 06:08:58;;;;;;;6.82;6.18;;;;;;;;;;4965657;28;20516;-66
2023/03/21 06:11:34;;;;;;;9.35;6.90;;;;;;;;;;4968337;28;20034;-66
2023/03/21 06:14:20;;;;;;;9.77;6.03;;;;;;;;;;4962413;28;20900;-65
2023/03/21 06:16:59;;;;;;;11.65;6.90;;;;;;;;;;4989584;28;20038;-66
2023/03/21 06:19:25;;;;;;;7.53;6.65;;;;;;;;;;4987434;28;20038;-66
2023/03/21 06:22:00;;;;;;;7.47;6.78;;;;;;;;;;4969295;28;20509;-67
2023/03/21 06:24:26;;;;;;;7.60;6.90;;;;;;;;;;4985440;28;20041;-66
2023/03/21 06:26:52;;;;;;;7.75;6.47;;;;;;;;;;4974161;28;20061;-66
2023/03/21 06:29:18;;;;;;;7.75;6.97;;;;;;;;;;4967829;28;20023;-66
2023/03/21 06:31:47;;;;;;;10.43;7.10;;;;;;;;;;4970851;28;20406;-67
2023/03/21 06:34:14;;;;;;;8.48;6.38;;;;;;;;;;4972821;28;20121;-66
2023/03/21 06:36:39;;;;;;;7.82;6.40;;;;;;;;;;4968297;28;20178;-67
2023/03/21 06:39:07;;;;;;;9.15;6.35;;;;;;;;;;4968319;28;20486;-66
2023/03/21 06:41:36;;;;;;;10.15;6.28;;;;;;;;;;4973298;28;20042;-67
2023/03/21 06:44:03;;;;;;;8.35;6.82;;;;;;;;;;4975383;28;20065;-67
2023/03/21 06:46:33;;;;;;;8.77;6.63;;;;;;;;;;4984156;28;20411;-67
2023/03/21 06:48:59;;;;;;;7.32;6.63;;;;;;;;;;4972287;28;20039;-67
2023/03/21 06:51:28;;;;;;;7.93;6.18;;;;;;;;;;4972798;28;20482;-66
2023/03/21 06:54:04;;;;;;;8.70;6.90;;;;;;;;;;4971160;28;20038;-66
2023/03/21 06:56:37;;;;;;;8.05;6.40;;;;;;;;;;4969409;28;20566;-66
2023/03/21 06:59:04;;;;;;;8.80;6.95;;;;;;;;;;4971833;28;20114;-66
2023/03/21 07:01:52;;;;;;;8.73;6.63;;;;;;;;;;4972531;28;20110;-67
2023/03/21 07:04:18;;;;;;;13.43;7.97;;;;;;;;;;4968538;28;20071;-66
2023/03/21 07:06:43;;;;;;;8.80;7.38;;;;;;;;;;4982859;28;20294;-67
2023/03/21 07:09:09;;;;;;;7.60;6.70;;;;;;;;;;4970213;28;20042;-66
2023/03/21 07:11:36;;;;;;;10.40;6.60;;;;;;;;;;4970305;28;20483;-67
2023/03/21 07:14:03;;;;;;;9.85;7.50;;;;;;;;;;4986035;28;20042;-67
2023/03/21 07:16:29;;;;;;;7.80;6.38;;;;;;;;;;4964531;28;20054;-67
2023/03/21 07:18:55;;;;;;;8.85;6.43;;;;;;;;;;4969359;28;20030;-67
2023/03/21 07:21:21;;;;;;;8.15;6.88;;;;;;;;;;4973300;28;20356;-67
2023/03/21 07:23:49;;;;;;;9.85;6.75;;;;;;;;;;4966539;28;20105;-67
2023/03/21 07:26:17;;;;;;;6.53;5.93;;;;;;;;;;4967300;28;20030;-67
2023/03/21 07:28:43;;;;;;;8.57;6.18;;;;;;;;;;4970446;28;20088;-67
2023/03/21 07:31:12;;;;;;;9.57;6.47;;;;;;;;;;4968307;28;20037;-66
2023/03/21 07:33:38;;;;;;;6.85;6.25;;;;;;;;;;4965862;28;20039;-67
2023/03/21 07:36:10;;;;;;;8.88;6.55;;;;;;;;;;4985797;28;20085;-66
2023/03/21 07:38:36;;;;;;;8.55;7.00;;;;;;;;;;4973923;28;20065;-67
2023/03/21 07:41:02;;;;;;;6.72;5.57;;;;;;;;;;4968764;28;20061;-67
2023/03/21 07:43:31;;;;;;;;;;;;;;;;;;4968097;28;20070;-66
2023/03/21 07:45:58;;;;;;;5.75;5.10;;;;;;;;;;4972898;28;19997;-66
2023/03/21 07:48:25;;;;;;;6.43;5.25;;;;;;;;;;4974268;28;20038;-67
2023/03/21 07:50:51;;;;;;;6.28;5.68;;;;;;;;;;4970238;28;20426;-67
2023/03/21 07:53:17;;;;;;;5.93;5.15;;;;;;;;;;4983761;28;20546;-67
2023/03/21 07:55:42;;;;;;;5.65;4.75;;;;;;;;;;4972874;28;20038;-67
2023/03/21 07:58:08;;;;;;;6.05;5.10;;;;;;;;;;4967120;28;20068;-67
2023/03/21 08:00:34;;;;;;;5.22;4.82;;;;;;;;;;4969341;28;20402;-67
2023/03/21 08:03:00;;;;;;;7.65;5.60;;;;;;;;;;4972078;28;20042;-67
2023/03/21 08:05:33;;;;;;;9.63;5.32;;;;;;;;;;4972588;28;20210;-67
2023/03/21 08:07:59;;;;;;;5.22;4.35;;;;;;;;;;4969135;28;20076;-66
2023/03/21 08:10:26;;;;;;;5.60;5.10;;;;;;;;;;4968484;28;20035;-67
2023/03/21 08:12:52;;;;;;;5.93;5.10;;;;;;;;;;4975613;28;20038;-67
2023/03/21 08:15:17;;;;;;;5.78;5.20;;;;;;;;;;4971672;28;20038;-67
2023/03/21 08:17:46;;;;;;;7.35;4.90;;;;;;;;;;4967005;28;20030;-67
2023/03/21 08:20:16;;;;;;;6.63;4.90;;;;;;;;;;4972391;28;20034;-67
2023/03/21 08:22:42;;;;;;;5.03;4.63;;;;;;;;;;4969018;28;20039;-67
2023/03/21 08:25:12;;;;;;;5.22;4.82;;;;;;;;;;4967038;28;20083;-67
2023/03/21 08:27:41;;;;;;;8.25;4.97;;;;;;;;;;4968765;28;20521;-66
2023/03/21 08:30:09;;;;;;;6.57;5.15;;;;;;;;;;4974805;28;20243;-66
2023/03/21 08:32:37;;;;;;;6.20;5.60;;;;;;;;;;4973446;28;20031;-67
2023/03/21 08:35:06;;;;;;;7.25;5.45;;;;;;;;;;4970297;28;20098;-67
2023/03/21 08:37:32;;;;;;;8.73;7.85;;;;;;;;;;4974011;28;20378;-67
2023/03/21 08:39:58;;;;;;;6.78;6.07;;;;;;;;;;4973590;28;20042;-67
2023/03/21 08:42:24;;;;;;;5.68;5.18;;;;;;;;;;4973235;28;20038;-67
2023/03/21 08:44:49;;;;;;;7.00;5.07;;;;;;;;;;4977165;28;20639;-67
2023/03/21 08:47:15;;;;;;;7.40;5.78;;;;;;;;;;4976339;28;20031;-67
2023/03/21 08:49:44;;;;;;;6.13;5.30;;;;;;;;;;4976471;28;20035;-66
2023/03/21 08:52:10;;;;;;;8.05;5.03;;;;;;;;;;4974202;28;20065;-67
2023/03/21 08:54:37;;;;;;;9.80;5.75;;;;;;;;;;4974847;28;20039;-66
2023/03/21 08:57:02;;;;;;;5.95;5.35;;;;;;;;;;4979323;28;20038;-67
2023/03/21 08:59:28;;;;;;;5.32;4.82;;;;;;;;;;4975206;28;20028;-67
2023/03/21 09:01:53;;;;;;;7.45;5.38;;;;;;;;;;4978836;28;20035;-68
2023/03/21 09:04:19;;;;;;;5.88;5.32;;;;;;;;;;4979218;28;20206;-67
2023/03/21 09:06:47;;;;;;;6.70;5.47;;;;;;;;;;4974394;28;20035;-67
2023/03/21 09:09:14;;;;;;;6.07;5.13;;;;;;;;;;4974146;28;20042;-67
2023/03/21 09:11:39;;;;;;;5.55;5.05;;;;;;;;;;4971697;28;20050;-66
2023/03/21 09:14:05;;;;;;;7.30;5.30;;;;;;;;;;4972507;28;20073;-67
2023/03/21 09:16:31;;;;;;;6.00;5.13;;;;;;;;;;4973392;28;20043;-66
2023/03/21 09:18:58;;;;;;;5.57;5.00;;;;;;;;;;4970528;28;20559;-67
2023/03/21 09:21:26;;;;;;;6.10;5.15;;;;;;;;;;4977094;28;20081;-67
2023/03/21 09:23:58;;;;;;;5.65;5.15;;;;;;;;;;4974891;28;20630;-67
2023/03/21 09:26:24;;;;;;;6.25;5.13;;;;;;;;;;4978959;28;20031;-67
2023/03/21 09:28:50;;;;;;;5.70;5.05;;;;;;;;;;4969588;28;20081;-67
2023/03/21 09:31:21;;;;;;;5.10;4.63;;;;;;;;;;4971550;28;20439;-67
2023/03/21 09:33:51;;;;;;;5.97;5.47;;;;;;;;;;4975833;28;20041;-67
2023/03/21 09:36:20;;;;;;;5.43;5.00;;;;;;;;;;4972032;28;20478;-67
2023/03/21 09:38:47;;;;;;;5.35;4.85;;;;;;;;;;4970686;28;20038;-67
2023/03/21 09:41:19;;;;;;;6.80;5.13;;;;;;;;;;4970053;28;20042;-67
2023/03/21 09:44:12;;;;;;;5.60;5.10;;;;;;;;;;4974438;28;20046;-67
2023/03/21 09:46:57;;;;;;;5.10;4.70;;;;;;;;;;4972930;28;20414;-67
2023/03/21 09:49:30;;;;;;;5.43;4.93;;;;;;;;;;4972258;28;20446;-67
2023/03/21 09:51:59;;;;;;;5.53;5.03;;;;;;;;;;4989116;28;20042;-67
2023/03/21 09:54:38;;;;;;;5.50;5.00;;;;;;;;;;4972981;28;20038;-67
2023/03/21 09:57:30;;;;;;;6.10;5.57;;;;;;;;;;4976187;28;20602;-67
2023/03/21 10:00:06;;;;;;;5.50;5.10;;;;;;;;;;4976353;28;20106;-67
2023/03/21 10:02:46;;;;;;;5.53;5.13;;;;;;;;;;4969630;28;20030;-69
2023/03/21 10:05:18;;;;;;;5.68;5.18;;;;;;;;;;4975793;28;20041;-67
2023/03/21 10:07:51;;;;;;;5.45;5.00;;;;;;;;;;4971252;28;20521;-67
2023/03/21 10:10:26;;;;;;;5.63;5.22;;;;;;;;;;4971571;28;20034;-68
2023/03/21 10:12:53;;;;;;;5.57;5.07;;;;;;;;;;4971881;28;20034;-67
2023/03/21 10:15:21;;;;;;;5.68;5.18;;;;;;;;;;4973181;28;20186;-68
2023/03/21 10:18:00;;;;;;;5.15;4.75;;;;;;;;;;4977254;28;20034;-67
2023/03/21 10:20:35;;;;;;;4.78;4.45;;;;;;;;;;4969338;28;20038;-67
2023/03/21 10:23:05;;;;;;;4.97;4.57;;;;;;;;;;4976010;28;20498;-67
2023/03/21 10:25:35;;;;;;;4.85;4.45;;;;;;;;;;4976129;28;20125;-67
2023/03/21 10:28:02;;;;;;;5.40;5.00;;;;;;;;;;4969121;28;20513;-67
2023/03/21 10:30:45;;;;;;;6.38;4.38;;;;;;;;;;4977098;28;20094;-68
2023/03/21 10:33:40;;;;;;;6.13;4.63;;;;;;;;;;4980368;28;20034;-67
2023/03/21 10:36:10;;;;;;;5.03;4.63;;;;;;;;;;4969781;28;20550;-67
2023/03/21 10:38:40;;;;;;;4.95;4.55;;;;;;;;;;4970950;28;20034;-67
2023/03/21 10:41:06;;;;;;;5.50;5.00;;;;;;;;;;4973356;28;20030;-67
2023/03/21 10:43:36;;;;;;;5.20;4.80;;;;;;;;;;4974290;28;20030;-67
2023/03/21 10:46:15;;;;;;;5.30;4.80;;;;;;;;;;4968870;28;20027;-67
2023/03/21 10:48:45;;;;;;;5.00;4.60;;;;;;;;;;4968297;28;20117;-67
2023/03/21 10:51:16;;;;;;;5.70;5.30;;;;;;;;;;4969789;28;20038;-67
2023/03/21 10:53:48;;;;;;;5.65;5.10;;;;;;;;;;4970254;28;20491;-67
2023/03/21 10:56:14;;;;;;;5.28;4.88;;;;;;;;;;4968949;28;20100;-67
2023/03/21 10:58:43;;;;;;;5.38;4.40;;;;;;;;;;4972859;28;20486;-67
2023/03/21 11:01:13;;;;;;;;;;;;;;;;;;4970709;28;20034;-67
2023/03/21 11:03:42;;;;;;;4.80;4.40;;;;;;;;;;4967322;28;19918;-67
2023/03/21 11:06:16;;;;;;;4.47;4.18;;;;;;;;;;4974223;28;20027;-67
2023/03/21 11:08:49;;;;;;;4.80;4.40;;;;;;;;;;4969908;28;20039;-67
2023/03/21 11:11:26;;;;;;;4.35;3.97;;;;;;;;;;4966771;28;20058;-68
2023/03/21 11:14:00;;;;;;;5.25;4.57;;;;;;;;;;4969811;28;20046;-67
2023/03/21 11:16:34;;;;;;;4.70;4.22;;;;;;;;;;4973760;28;20088;-67
2023/03/21 11:19:10;;;;;;;4.80;4.30;;;;;;;;;;4967386;28;20041;-68
2023/03/21 11:21:36;;;;;;;4.32;4.03;;;;;;;;;;4970935;28;20487;-72
2023/03/21 11:24:02;;;;;;;4.85;3.88;;;;;;;;;;4973292;28;20042;-67
2023/03/21 11:26:35;;;;;;;4.63;4.30;;;;;;;;;;4972824;28;20069;-67
2023/03/21 11:29:49;;;;;;;4.63;4.32;;;;;;;;;;4967636;28;20074;-67
2023/03/21 11:32:31;;;;;;;4.63;4.30;;;;;;;;;;4972314;28;20138;-67
2023/03/21 11:35:06;;;;;;;4.72;4.40;;;;;;;;;;4973034;28;20486;-67
2023/03/21 11:37:44;;;;;;;4.40;4.10;;;;;;;;;;4967932;28;20034;-67
2023/03/21 11:40:32;;;;;;;4.85;4.30;;;;;;;;;;4973097;28;20044;-65
2023/03/21 11:43:15;;;;;;;4.90;4.43;;;;;;;;;;4978346;28;20509;-65
2023/03/21 11:45:55;;;;;;;4.50;4.20;;;;;;;;;;4965674;28;20046;-68
2023/03/21 11:48:22;;;;;;;4.80;4.47;;;;;;;;;;4972405;28;20084;-67
2023/03/21 11:50:51;;;;;;;4.60;4.30;;;;;;;;;;4971472;28;20031;-67
2023/03/21 11:53:40;;;;;;;4.50;4.20;;;;;;;;;;4973824;28;20080;-64
2023/03/21 11:56:22;;;;;;;4.70;4.40;;;;;;;;;;4973832;28;20034;-67
2023/03/21 11:59:18;;;;;;;4.32;3.92;;;;;;;;;;4972329;28;20019;-67
2023/03/21 12:02:07;;;;;;;4.90;4.40;;;;;;;;;;4969493;28;20026;-68
2023/03/21 12:04:58;;;;;;;4.35;4.05;;;;;;;;;;4984194;28;20134;-67
2023/03/21 12:07:36;;;;;;;4.50;4.10;;;;;;;;;;4970190;28;20410;-67
2023/03/21 12:10:32;;;;;;;5.53;4.40;;;;;;;;;;4967426;28;20035;-67
2023/03/21 12:13:25;;;;;;;4.68;4.38;;;;;;;;;;4970424;28;20030;-67
2023/03/21 12:16:01;;;;;;;4.47;4.15;;;;;;;;;;4972681;28;20125;-67
2023/03/21 12:18:48;;;;;;;4.00;3.80;;;;;;;;;;4963812;28;20425;-68
2023/03/21 12:21:17;;;;;;;6.03;3.80;;;;;;;;;;4968300;28;20449;-68
2023/03/21 12:24:01;;;;;;;4.78;4.32;;;;;;;;;;4968016;28;20049;-67
2023/03/21 12:26:30;;;;;;;4.13;3.83;;;;;;;;;;4968934;28;20038;-68
2023/03/21 12:29:18;;;;;;;4.10;3.90;;;;;;;;;;4962278;28;20039;-67
2023/03/21 12:32:24;;;;;;;4.50;4.10;;;;;;;;;;4966093;28;20402;-68
2023/03/21 12:35:05;;;;;;;4.30;3.90;;;;;;;;;;4968067;28;20039;-68
2023/03/21 12:37:30;;;;;;;4.38;4.07;;;;;;;;;;4964298;28;20503;-67
2023/03/21 12:40:08;;;;;;;4.60;4.30;;;;;;;;;;4966752;28;20039;-68
2023/03/21 12:43:05;;;;;;;4.10;3.80;;;;;;;;;;4971058;28;20062;-66
2023/03/21 12:45:36;;;;;;;4.45;4.05;;;;;;;;;;4963924;28;20122;-65
2023/03/21 12:48:18;;;;;;;4.05;3.80;;;;;;;;;;4966166;28;20059;-67
2023/03/21 12:50:45;;;;;;;4.10;3.80;;;;;;;;;;4971387;28;20035;-68
2023/03/21 12:53:29;;;;;;;4.57;4.28;;;;;;;;;;4963182;28;20039;-69
2023/03/21 12:56:00;;;;;;;4.22;3.88;;;;;;;;;;4965520;28;20070;-68
2023/03/21 12:58:27;;;;;;;4.40;4.10;;;;;;;;;;4966794;28;20031;-67
2023/03/21 13:00:56;;;;;;;4.10;3.80;;;;;;;;;;4969729;28;20469;-66
2023/03/21 13:03:38;;;;;;;4.68;4.20;;;;;;;;;;4970113;28;20094;-68
2023/03/21 13:06:05;;;;;;;4.35;4.05;;;;;;;;;;4964568;28;20034;-68
2023/03/21 13:08:43;;;;;;;4.40;4.05;;;;;;;;;;4967784;28;20034;-67
2023/03/21 13:11:14;;;;;;;4.60;4.20;;;;;;;;;;4970259;28;20050;-66
2023/03/21 13:13:55;;;;;;;4.55;4.25;;;;;;;;;;4970114;28;20034;-66
2023/03/21 13:16:31;;;;;;;4.65;4.32;;;;;;;;;;4962746;28;20043;-66
2023/03/21 13:19:12;;;;;;;6.45;5.25;;;;;;;;;;4965306;28;20098;-66
2023/03/21 13:21:47;;;;;;;5.25;4.75;;;;;;;;;;4970623;28;20498;-66
2023/03/21 13:24:37;;;;;;;5.10;4.50;;;;;;;;;;4964476;28;20351;-68
2023/03/21 13:27:18;;;;;;;4.85;4.35;;;;;;;;;;4968580;28;20422;-66
2023/03/21 13:29:48;;;;;;;4.68;4.28;;;;;;;;;;4972359;28;20121;-68
2023/03/21 13:32:22;;;;;;;4.95;4.53;;;;;;;;;;4968253;28;20031;-65
2023/03/21 13:34:55;;;;;;;5.30;4.80;;;;;;;;;;4968854;28;20481;-68
2023/03/21 13:37:21;;;;;;;4.97;4.63;;;;;;;;;;4983996;28;20039;-68
2023/03/21 13:39:48;;;;;;;4.47;4.18;;;;;;;;;;4976846;28;20477;-68
2023/03/21 13:42:28;;;;;;;4.30;4.05;;;;;;;;;;4976457;28;20340;-68
2023/03/21 13:45:00;;;;;;;4.47;4.18;;;;;;;;;;4968810;28;20039;-68
2023/03/21 13:47:51;;;;;;;4.80;4.40;;;;;;;;;;4971017;28;20042;-67
2023/03/21 13:50:16;;;;;;;4.65;4.25;;;;;;;;;;4965601;28;20039;-68
2023/03/21 13:53:02;;;;;;;4.45;4.15;;;;;;;;;;4972810;28;20426;-68
2023/03/21 13:55:35;;;;;;;4.35;3.95;;;;;;;;;;4968006;28;20039;-67
2023/03/21 13:58:30;;;;;;;4.65;4.25;;;;;;;;;;4967837;28;20039;-68
2023/03/21 14:01:26;;;;;;;5.53;4.60;;;;;;;;;;4968593;28;20062;-66
2023/03/21 14:04:08;;;;;;;4.40;4.00;;;;;;;;;;4972200;28;20046;-65
2023/03/21 14:06:42;;;;;;;4.40;4.07;;;;;;;;;;4966611;28;20050;-67
2023/03/21 14:09:15;;;;;;;4.32;3.95;;;;;;;;;;4967740;28;20084;-68
2023/03/21 14:11:42;;;;;;;4.05;3.75;;;;;;;;;;4967348;28;20222;-68
2023/03/21 14:14:09;;;;;;;4.18;3.80;;;;;;;;;;4966920;28;22204;-68
2023/03/21 14:16:34;;;;;;;4.30;3.90;;;;;;;;;;4968203;28;20494;-68
2023/03/21 14:19:04;;;;;;;4.32;3.90;;;;;;;;;;4968025;28;20039;-67
2023/03/21 14:21:34;;;;;;;4.20;3.97;;;;;;;;;;4967009;28;20054;-68
2023/03/21 14:24:05;;;;;;;3.95;3.70;;;;;;;;;;4966467;28;20043;-68
2023/03/21 14:26:34;;;;;;;4.13;3.70;;;;;;;;;;4968630;28;20049;-67
2023/03/21 14:29:03;;;;;;;3.80;3.60;;;;;;;;;;4967093;28;20150;-66
2023/03/21 14:31:29;;;;;;;4.72;4.07;;;;;;;;;;4966263;28;20053;-67
2023/03/21 14:33:58;;;;;;;4.32;3.88;;;;;;;;;;4967228;28;20042;-68
2023/03/21 14:36:27;;;;;;;4.00;3.60;;;;;;;;;;4967512;28;20033;-67
2023/03/21 14:39:03;;;;;;;4.30;3.90;;;;;;;;;;4965852;28;20514;-68
2023/03/21 14:41:31;;;;;;;3.83;3.63;;;;;;;;;;4968356;28;20032;-68
2023/03/21 14:44:09;;;;;;;3.60;3.40;;;;;;;;;;4986078;28;20146;-67
2023/03/21 14:46:35;;;;;;;3.75;3.55;;;;;;;;;;4966174;28;20379;-68
2023/03/21 14:49:39;;;;;;;3.97;3.60;;;;;;;;;;4970696;28;20050;-67
2023/03/21 14:52:10;;;;;;;6.10;3.50;;;;;;;;;;4984439;28;20117;-68
2023/03/21 14:54:39;;;;;;;3.70;3.50;;;;;;;;;;4984662;28;20391;-68
2023/03/21 14:57:09;;;;;;;;;;;;;;;;;;4983102;28;20042;-68
2023/03/21 14:59:38;;;;;;;5.80;3.22;;;;;;;;;;4984013;28;19972;-68
2023/03/21 15:02:26;;;;;;;3.75;3.45;;;;;;;;;;4984064;28;20054;-67
2023/03/21 15:04:56;;;;;;;4.30;3.90;;;;;;;;;;4982667;28;20038;-68
2023/03/21 15:07:28;;;;;;;3.80;3.60;;;;;;;;;;4983693;28;20050;-68
2023/03/21 15:09:56;;;;;;;4.05;3.75;;;;;;;;;;4983475;28;20073;-67
2023/03/21 15:12:22;;;;;;;5.60;4.95;;;;;;;;;;4984131;28;20045;-68
2023/03/21 15:14:48;;;;;;;5.65;5.07;;;;;;;;;;4982275;28;20472;-67